Latest Weather Observations for Richmond

IDN60901

Issued at 7:21 pm EDT Monday 4 March 2024 (issued every 10 minutes, with the page automatically refreshed every 10 minutes)

About weather observations | Map of Sydney area stations | Latest observations for Sydney area | Other Formats
Station Details ID: 067105 Name: RICHMOND RAAF Lat: -33.60 Lon: 150.78 Height: 19.0 m
Data from the previous 72 hours. | See also: Recent months at Richmond
Date/Time
EDT
Temp
°C
App
Temp
°C
Dew
Point
°C
Rel
Hum
%
Delta-T
°C
Wind Press
QNH
hPa
Press
MSL
hPa
Rain since
9am
mm
Dir  Spd
km/h
Gust
km/h
Spd
kts
Gust
kts
04/07:00pm 20.7 19.3 14.4 67 3.7 SE 15 20 8 11 1022.6 1022.6 0.2
04/06:30pm 21.4 19.2 14.8 66 3.9 SE 20 24 11 13 1022.2 1022.2 0.2
04/06:00pm 22.1 19.5 15.0 64 4.2 SE 22 32 12 17 1021.9 1021.8 0.2
04/05:30pm 22.5 19.9 14.9 62 4.5 ESE 22 26 12 14 1021.9 1021.8 0.2
04/05:00pm 22.7 20.6 14.8 61 4.7 ESE 19 26 10 14 1021.8 1021.7 0.2
04/04:30pm 23.1 21.2 15.2 61 4.7 ESE 19 24 10 13 1021.8 1021.7 0.2
04/04:00pm 23.6 21.4 14.9 58 5.2 ESE 20 26 11 14 1021.9 1021.8 0.2
04/03:30pm 23.0 21.1 14.3 58 5.1 SSE 17 22 9 12 1022.1 1022.1 0.2
04/03:00pm 22.9 21.3 13.9 57 5.2 SSE 15 20 8 11 1022.1 1022.1 0.2
04/02:30pm 23.1 21.1 13.8 55 5.4 SSE 17 20 9 11 1022.2 1022.2 0.2
04/02:00pm 23.0 22.8 13.5 55 5.5 SSE 7 15 4 8 1022.1 1022.1 0.2
04/01:30pm 22.7 21.3 13.5 56 5.3 SE 13 20 7 11 1022.2 1022.2 0.2
04/01:00pm 22.8 21.6 14.1 58 5.1 SSE 13 17 7 9 1022.4 1022.4 0.2
04/12:30pm 22.9 21.5 14.5 59 5.0 SE 15 24 8 13 1022.6 1022.6 0.2
04/12:00pm 23.2 22.9 14.5 58 5.1 S 9 17 5 9 1022.8 1022.8 0.0
04/11:30am 22.8 22.6 14.6 60 4.8 SSW 9 19 5 10 1023.0 1023.0 0.0
04/11:00am 21.3 20.2 13.0 59 4.7 S 11 20 6 11 1023.2 1023.2 0.0
04/10:30am 21.2 19.7 14.1 64 4.1 S 15 24 8 13 1023.0 1023.0 0.0
04/10:00am 21.0 20.3 14.2 65 3.9 S 11 17 6 9 1022.8 1022.8 0.0
04/09:30am 20.5 19.4 14.2 67 3.7 S 13 20 7 11 1022.5 1022.5 0.0
04/09:00am 20.3 20.0 15.5 74 2.8 SSW 11 15 6 8 1022.1 1022.1 0.6
04/08:30am 20.0 18.4 15.0 73 2.9 SSE 17 24 9 13 1021.7 1021.6 0.6
04/08:00am 19.8 19.0 15.2 75 2.7 SSE 13 20 7 11 1021.2 1021.1 0.6
04/07:30am 19.6 18.9 16.4 82 1.9 SSE 15 19 8 10 1020.6 1020.5 0.6
04/07:00am 19.4 19.4 17.2 87 1.3 SSE 13 19 7 10 1020.1 1020.0 0.6
04/06:30am 19.6 18.1 17.6 88 1.2 SE 22 32 12 17 1019.6 1019.5 0.6
04/06:00am 20.3 22.4 19.0 92 0.8 SSW 6 9 3 5 1019.1 1019.0 0.6
04/05:30am 20.0 21.3 18.5 91 0.9 S 9 17 5 9 1018.6 1018.5 0.6
04/05:00am 21.0 22.0 17.8 82 2.0 S 9 11 5 6 1018.3 1018.2 0.2
04/04:30am 21.1 22.5 17.7 81 2.1 SW 7 9 4 5 1018.0 1017.9 0.2
04/04:00am 21.2 22.0 17.4 79 2.3 S 9 13 5 7 1017.7 1017.6 0.2
04/03:30am 21.3 21.1 17.7 80 2.2 SSE 15 20 8 11 1017.5 1017.4 0.2
04/03:00am 21.4 21.0 18.0 81 2.1 SE 17 24 9 13 1017.4 1017.3 0.2
04/02:30am 21.7 21.1 18.5 82 2.0 SE 19 28 10 15 1017.3 1017.2 0.2
04/02:00am 22.1 21.7 19.3 84 1.8 SSE 20 28 11 15 1017.3 1017.2 0.2
04/01:30am 22.5 23.4 20.0 86 1.6 SSE 15 20 8 11 1017.1 1017.0 0.2
04/01:00am 22.2 23.8 19.9 87 1.5 SSW 11 15 6 8 1017.0 1016.9 0.2
04/12:30am 22.3 23.8 19.8 86 1.6 SSW 11 15 6 8 1016.9 1016.8 0.2
04/12:00am 22.4 24.0 19.9 86 1.6 SSW 11 15 6 8 1016.4 1016.3 0.2
 
Date/Time
EDT
Temp
°C
App
Temp
°C
Dew
Point
°C
Rel
Hum
%
Delta-T
°C
Wind Press
QNH
hPa
Press
MSL
hPa
Rain since
9am
mm
Dir  Spd
km/h
Gust
km/h
Spd
kts
Gust
kts
03/11:30pm 22.5 24.5 20.0 86 1.6 SSW 9 15 5 8 1016.0 1015.9 0.2
03/11:00pm 22.9 24.7 20.4 86 1.6 SW 11 17 6 9 1015.5 1015.4 0.2
03/10:30pm 24.0 25.9 21.3 85 1.8 SSW 13 17 7 9 1015.0 1014.9 0.2
03/10:00pm 24.4 27.1 22.1 87 1.5 SSE 11 17 6 9 1015.0 1014.9 0.2
03/09:30pm 24.0 26.1 20.9 83 2.0 S 11 17 6 9 1014.6 1014.5 0.2
03/09:00pm 24.3 25.8 19.8 76 2.9 SSW 11 17 6 9 1013.7 1013.6 0.2
03/08:30pm 25.7 25.8 18.4 64 4.6 S 15 22 8 12 1013.0 1012.9 0.2
03/08:00pm 27.3 24.7 15.0 47 7.5 SSE 22 30 12 16 1011.9 1011.8 0.2
03/07:30pm 28.7 26.5 7.9 27 11.3 S 9 15 5 8 1011.1 1011.0 0.2
03/07:00pm 30.2 27.7 8.0 25 12.2 SW 11 17 6 9 1010.5 1010.4 0.2
03/06:30pm 31.6 29.4 9.2 25 12.6 SSW 11 19 6 10 1010.0 1009.9 0.2
03/06:00pm 32.1 31.4 13.3 31 11.3 S 9 13 5 7 1009.7 1009.6 0.2
03/05:30pm 32.2 31.1 14.3 33 10.9 SSE 13 17 7 9 1009.5 1009.4 0.2
03/05:00pm 31.8 32.8 17.7 43 9.0 SE 9 17 5 9 1009.4 1009.3 0.2
03/04:30pm 32.2 31.8 16.1 38 10.1 SSW 13 20 7 11 1009.4 1009.3 0.2
03/04:00pm 32.6 31.4 15.1 34 10.8 W 15 26 8 14 1009.4 1009.3 0.2
03/03:30pm 32.5 29.5 13.7 32 11.4 WNW 22 30 12 16 1009.3 1009.2 0.2
03/03:00pm 32.1 30.2 15.1 35 10.5 NW 19 28 10 15 1009.6 1009.5 0.2
03/02:30pm 30.7 30.4 19.1 50 7.6 N 19 24 10 13 1010.2 1010.1 0.2
03/02:00pm 30.1 32.5 22.3 63 5.3 N 13 20 7 11 1010.7 1010.6 0.2
03/01:30pm 28.9 30.7 21.1 62 5.2 N 13 20 7 11 1011.2 1011.1 0.2
03/01:00pm 27.9 29.6 19.4 60 5.5 NNE 9 17 5 9 1011.7 1011.6 0.2
03/12:30pm 27.0 29.9 21.1 70 3.9 NNE 7 13 4 7 1012.3 1012.2 0.2
03/12:00pm 24.8 27.3 20.3 76 2.9 NNE 7 11 4 6 1013.1 1013.0 0.0
03/11:30am 24.7 26.9 21.2 81 2.3 N 11 17 6 9 1013.6 1013.5 0.0
03/11:00am 23.7 26.4 21.4 87 1.5 NE 9 13 5 7 1013.9 1013.8 0.0
03/10:30am 23.2 24.8 20.7 86 1.6 NE 13 17 7 9 1014.0 1013.9 0.0
03/10:00am 22.8 24.7 21.4 92 0.9 NNE 13 17 7 9 1014.2 1014.1 0.0
03/09:30am 21.5 23.8 21.3 99 0.1 ENE 11 13 6 7 1014.4 1014.3 0.0
03/09:08am 20.7 22.2 20.5 99 0.1 NE 13 15 7 8 1014.5 1014.4 0.0
03/09:00am 20.8 22.4 20.8 100 0.0 NE 13 19 7 10 1014.5 1014.4 2.4
03/08:48am 19.8 22.1 19.8 100 0.0 NNE 7 11 4 6 1014.7 1014.6 2.4
03/08:30am 19.2 21.2 19.2 100 0.0 N 7 9 4 5 1014.8 1014.7 2.4
03/08:10am 19.1 22.4 19.1 100 0.0 CALM 0 0 0 0 1014.8 1014.7 2.4
03/08:08am 19.2 22.5 19.2 100 0.0 CALM 0 0 0 0 1014.8 1014.7 2.4
03/08:00am 19.1 22.4 19.1 100 0.0 CALM 0 0 0 0 1014.9 1014.8 2.4
03/07:30am 18.4 21.3 18.2 99 0.1 CALM 0 0 0 0 1014.9 1014.8 2.4
03/07:12am 18.3 21.2 18.1 99 0.1 CALM 0 0 0 0 1014.7 1014.6 2.4
03/07:00am 18.2 21.0 18.0 99 0.1 CALM 0 0 0 0 1014.7 1014.6 2.4
03/06:46am 18.1 20.9 17.9 99 0.1 CALM 0 0 0 0 1014.7 1014.6 2.4
03/06:30am 18.1 20.9 17.9 99 0.1 CALM 0 0 0 0 1014.6 1014.5 2.4
03/06:00am 18.4 21.3 18.2 99 0.1 CALM 0 0 0 0 1014.7 1014.6 2.4
03/05:30am 18.9 22.0 18.7 99 0.1 CALM 0 0 0 0 1014.6 1014.5 2.4
03/05:00am 19.5 22.9 19.3 99 0.1 CALM 0 0 0 0 1014.5 1014.4 2.4
03/04:30am 19.7 23.2 19.5 99 0.1 CALM 0 0 0 0 1014.6 1014.5 2.4
03/04:00am 19.7 23.2 19.5 99 0.1 CALM 0 0 0 0 1014.7 1014.6 2.4
03/03:30am 19.8 23.3 19.6 99 0.1 CALM 0 0 0 0 1015.1 1015.0 2.4
03/03:00am 19.8 23.3 19.6 99 0.1 CALM 0 0 0 0 1015.4 1015.3 2.4
03/02:30am 19.8 23.3 19.6 99 0.1 CALM 0 0 0 0 1015.8 1015.7 2.4
03/02:00am 19.5 22.9 19.3 99 0.1 CALM 0 0 0 0 1016.0 1015.9 2.4
03/01:30am 19.7 21.9 19.5 99 0.1 W 7 7 4 4 1016.4 1016.3 2.4
03/01:00am 20.0 22.3 19.8 99 0.1 W 7 9 4 5 1016.9 1016.8 2.4
03/12:30am 20.3 22.7 20.1 99 0.1 W 7 9 4 5 1017.2 1017.1 2.4
03/12:00am 20.5 23.0 20.2 98 0.2 WSW 7 9 4 5 1017.4 1017.3 2.4
 
Date/Time
EDT
Temp
°C
App
Temp
°C
Dew
Point
°C
Rel
Hum
%
Delta-T
°C
Wind Press
QNH
hPa
Press
MSL
hPa
Rain since
9am
mm
Dir  Spd
km/h
Gust
km/h
Spd
kts
Gust
kts
02/11:30pm 20.5 22.4 19.8 96 0.4 WSW 9 13 5 7 1017.5 1017.4 2.4
02/11:00pm 20.6 22.6 19.9 96 0.4 SW 9 13 5 7 1017.7 1017.6 2.4
02/10:30pm 20.9 23.0 20.2 96 0.4 SSW 9 11 5 6 1017.9 1017.8 2.4
02/10:00pm 20.9 23.5 20.4 97 0.3 SW 7 9 4 5 1017.7 1017.6 2.4
02/09:48pm 21.0 23.2 20.3 96 0.5 S 9 13 5 7 1017.6 1017.5 2.4
02/09:30pm 21.2 23.3 20.2 94 0.6 S 9 15 5 8 1017.6 1017.5 2.4
02/09:00pm 21.6 23.3 20.2 92 0.9 SSW 11 15 6 8 1017.1 1017.0 2.4
02/08:30pm 21.7 23.9 20.5 93 0.8 SW 9 13 5 7 1016.8 1016.7 2.4
02/08:00pm 21.8 24.3 20.3 91 1.0 S 7 11 4 6 1016.3 1016.2 2.4
02/07:30pm 21.8 24.6 20.8 94 0.6 SSE 7 11 4 6 1016.0 1015.9 2.4
02/07:00pm 22.1 23.7 20.7 92 0.9 SSE 13 20 7 11 1015.7 1015.6 2.4
02/06:30pm 22.5 23.8 20.8 90 1.1 SSE 15 20 8 11 1015.4 1015.3 2.4
02/06:00pm 23.1 24.9 21.2 89 1.2 SE 13 20 7 11 1015.1 1015.0 2.4
02/05:30pm 23.2 24.0 21.3 89 1.2 ESE 19 24 10 13 1014.9 1014.8 2.4
02/05:00pm 23.4 24.4 21.7 90 1.1 SE 19 22 10 12 1014.5 1014.4 2.4
02/04:30pm 23.4 25.0 22.2 93 0.8 SE 17 22 9 12 1013.9 1013.8 2.4
02/04:01pm 23.2 24.9 22.4 95 0.5 SE 17 22 9 12 1013.3 1013.2 2.4
02/04:00pm 23.0 24.5 22.0 94 0.7 SE 17 22 9 12 1013.3 1013.2 2.4
02/03:36pm 23.2 25.9 22.9 98 0.2 SSE 13 15 7 8 1013.2 1013.1 2.4
02/03:30pm 23.0 25.4 22.3 96 0.5 SE 13 17 7 9 1013.1 1013.0 2.4
02/03:00pm 23.0 27.2 21.8 93 0.8 SSE 2 7 1 4 1013.6 1013.5 2.2
02/02:30pm 23.0 26.2 22.3 96 0.5 S 9 13 5 7 1014.8 1014.7 1.8
02/02:00pm 23.2 26.5 22.5 96 0.5 SSW 9 15 5 8 1015.1 1015.0 1.4
02/01:30pm 23.3 25.6 22.1 93 0.8 S 13 17 7 9 1015.1 1015.0 0.8
02/01:00pm 24.0 25.7 22.4 91 1.1 SSE 17 24 9 13 1014.9 1014.8 0.2
02/12:30pm 24.2 26.7 22.5 90 1.1 SSE 13 17 7 9 1015.0 1014.9 0.2
02/12:00pm 24.4 25.6 22.5 89 1.3 SE 20 30 11 16 1014.7 1014.6 0.2
02/11:30am 24.8 25.3 22.7 88 1.4 SE 24 30 13 16 1013.9 1013.8 0.2
02/11:00am 24.9 26.2 23.3 91 1.1 SSE 22 30 12 16 1013.7 1013.6 0.2
02/10:30am 25.9 27.9 23.0 84 2.0 SSE 17 32 9 17 1013.2 1013.1 0.0
02/10:00am 26.6 30.2 24.3 87 1.6 SSE 13 17 7 9 1012.3 1012.2 0.0
02/09:30am 26.0 30.0 25.1 95 0.6 SSE 13 17 7 9 1011.9 1011.8 0.0
02/09:00am 25.4 30.8 25.2 99 0.1 SW 6 9 3 5 1011.0 1010.9 0.8
02/08:30am 24.7 30.8 24.5 99 0.1 CALM 0 6 0 3 1010.7 1010.6 0.8
02/08:00am 24.2 28.8 24.2 100 0.0 NW 7 9 4 5 1010.7 1010.6 0.8
02/07:30am 23.8 27.8 23.8 100 0.0 NW 9 11 5 6 1010.5 1010.4 0.8
02/07:00am 23.4 27.2 23.4 100 0.0 W 9 11 5 6 1010.2 1010.1 0.8
02/06:30am 23.4 27.2 23.4 100 0.0 WSW 9 11 5 6 1010.0 1009.9 0.8
02/06:15am 23.3 28.0 23.3 100 0.0 S 4 7 2 4 1009.8 1009.7 0.8
02/06:00am 23.4 28.9 23.4 100 0.0 CALM 0 0 0 0 1009.5 1009.4 0.8
02/05:30am 23.3 28.7 23.3 100 0.0 CALM 0 0 0 0 1009.2 1009.1 0.8
02/05:00am 23.4 28.9 23.4 100 0.0 CALM 0 0 0 0 1008.9 1008.8 0.8
02/04:30am 23.7 28.0 23.7 100 0.0 SW 7 11 4 6 1009.0 1008.9 0.8
02/04:00am 23.6 29.1 23.4 99 0.1 CALM 0 0 0 0 1009.0 1008.9 0.8
02/03:30am 23.9 29.6 23.7 99 0.1 CALM 0 0 0 0 1009.3 1009.2 0.8
02/03:15am 24.0 29.7 23.8 99 0.1 CALM 0 0 0 0 1009.1 1009.0 0.8
02/03:00am 24.2 30.0 24.0 99 0.1 CALM 0 0 0 0 1009.2 1009.1 0.8
02/02:30am 24.2 30.0 24.0 99 0.1 CALM 0 0 0 0 1009.7 1009.6 0.8
02/02:00am 24.3 30.2 24.1 99 0.1 CALM 0 0 0 0 1010.0 1009.9 0.6
02/01:30am 24.2 30.0 24.0 99 0.1 CALM 0 0 0 0 1010.5 1010.4 0.6
02/01:00am 24.3 30.2 24.1 99 0.1 CALM 0 0 0 0 1010.7 1010.6 0.6
02/12:30am 24.4 30.4 24.2 99 0.1 CALM 0 0 0 0 1011.0 1010.9 0.6
02/12:00am 24.6 30.7 24.4 99 0.1 CALM 0 0 0 0 1011.1 1011.0 0.6
 
Date/Time
EDT
Temp
°C
App
Temp
°C
Dew
Point
°C
Rel
Hum
%
Delta-T
°C
Wind Press
QNH
hPa
Press
MSL
hPa
Rain since
9am
mm
Dir  Spd
km/h
Gust
km/h
Spd
kts
Gust
kts
01/11:30pm 24.6 30.3 24.4 99 0.1 ENE 2 7 1 4 1011.1 1011.0 0.6
01/11:00pm 24.5 29.2 24.3 99 0.1 NE 7 9 4 5 1011.7 1011.6 0.6
01/10:30pm 24.4 28.7 24.2 99 0.1 NE 9 11 5 6 1011.9 1011.8 0.6
01/10:00pm 24.6 29.0 24.4 99 0.1 NNE 9 11 5 6 1012.1 1012.0 0.6
01/09:30pm 24.7 29.1 24.5 99 0.1 NNE 9 11 5 6 1012.2 1012.1 0.6
01/09:00pm 24.7 29.5 24.5 99 0.1 N 7 9 4 5 1012.3 1012.2 0.6
01/08:30pm 25.1 30.0 24.4 96 0.5 NE 6 9 3 5 1012.2 1012.1 0.6
01/08:13pm 25.8 30.4 24.8 94 0.7 SE 9 13 5 7 1012.2 1012.1 0.6
01/08:00pm 25.7 30.3 24.8 95 0.6 E 9 19 5 10 1012.0 1011.9 0.6
01/07:45pm 26.5 31.6 24.9 91 1.1 SSE 7 11 4 6 1012.6 1012.5 0.2
01/07:30pm 26.5 31.4 24.3 88 1.5 E 6 9 3 5 1012.0 1011.9 0.2

Latest Capital City Observations: Canberra | Sydney | Melbourne | Brisbane | Adelaide | Perth | Hobart | Darwin

Other formats

Comma delimited format used in spreadsheet applications
http://www.bom.gov.au/fwo/IDN60901/IDN60901.95753.axf

JavaScript Object Notation format (JSON) in row-major order
http://www.bom.gov.au/fwo/IDN60901/IDN60901.95753.json

Data quality

Most of these data are generated automatically and are frequently updated. Quality checks on data are not normally performed. It is possible for incorrect values to appear. Refer to information at About Latest Weather Observations and please check the disclaimer before using these data.